Time;durP1;ratioP1;P1;durP2;ratioP2;P2;SDS_P1;SDS_P2;PMS_P1;PMS_P2;Temp;Humidity;BMP_temperature;BMP_pressure;BME280_temperature;BME280_humidity;BME280_pressure;Samples;Min_cycle;Max_cycle;Signal;HPM_P1;HPM_P2
2023/05/16 00:02:25;;;;;;;5.63;5.43;;;10.00;99.90;;;;;;5046627;28;20855;-69
2023/05/16 00:04:52;;;;;;;5.80;5.40;;;9.90;99.90;;;;;;5042318;28;20864;-69
2023/05/16 00:07:18;;;;;;;4.83;4.53;;;9.80;99.90;;;;;;5039133;28;21046;-68
2023/05/16 00:09:47;;;;;;;5.00;4.80;;;9.70;99.90;;;;;;5037344;28;20834;-69
2023/05/16 00:12:16;;;;;;;5.03;4.80;;;9.70;99.90;;;;;;5043940;28;20468;-68
2023/05/16 00:14:43;;;;;;;5.50;5.20;;;9.70;99.90;;;;;;5042167;28;20574;-69
2023/05/16 00:17:11;;;;;;;7.47;5.10;;;9.70;99.90;;;;;;5040020;28;20844;-70
2023/05/16 00:19:39;;;;;;;6.07;5.67;;;9.50;99.90;;;;;;5036471;28;20488;-69
2023/05/16 00:22:06;;;;;;;4.93;4.73;;;9.50;99.90;;;;;;5037812;28;20467;-69
2023/05/16 00:24:33;;;;;;;5.10;4.90;;;9.50;99.90;;;;;;5042946;28;20499;-69
2023/05/16 00:27:02;;;;;;;4.20;4.00;;;9.50;99.90;;;;;;5043499;28;20455;-69
2023/05/16 00:29:30;;;;;;;4.27;4.07;;;9.50;99.90;;;;;;5031897;28;20456;-68
2023/05/16 00:31:58;;;;;;;4.30;4.10;;;9.40;99.90;;;;;;5042164;28;20815;-69
2023/05/16 00:34:26;;;;;;;5.27;5.07;;;9.50;99.90;;;;;;5038755;28;20784;-70
2023/05/16 00:36:53;;;;;;;4.90;4.50;;;9.40;99.90;;;;;;5042474;28;20950;-68
2023/05/16 00:39:20;;;;;;;5.87;5.60;;;9.40;99.90;;;;;;5039063;28;20494;-68
2023/05/16 00:41:47;;;;;;;6.97;5.00;;;9.40;99.90;;;;;;5039859;28;20468;-69
2023/05/16 00:44:16;;;;;;;5.07;4.70;;;9.30;99.90;;;;;;5037375;28;20488;-69
2023/05/16 00:46:43;;;;;;;5.10;4.70;;;9.30;99.90;;;;;;5044336;28;20465;-68
2023/05/16 00:49:11;;;;;;;12.73;5.43;;;9.20;99.90;;;;;;5038156;28;20456;-69
2023/05/16 00:51:39;;;;;;;5.03;4.73;;;9.20;99.90;;;;;;5043621;28;20534;-69
2023/05/16 00:54:07;;;;;;;5.47;4.97;;;9.20;99.90;;;;;;5040379;28;20468;-68
2023/05/16 00:56:34;;;;;;;3.93;3.83;;;9.20;99.90;;;;;;5049802;28;20855;-68
2023/05/16 00:59:03;;;;;;;5.03;4.53;;;9.20;99.90;;;;;;5037630;28;20806;-68
2023/05/16 01:01:33;;;;;;;5.97;5.67;;;9.10;99.90;;;;;;5038448;28;20484;-68
2023/05/16 01:04:01;;;;;;;5.83;5.43;;;9.10;99.90;;;;;;5042953;28;20505;-69
2023/05/16 01:06:28;;;;;;;10.20;5.80;;;9.10;99.90;;;;;;5032254;28;20967;-68
2023/05/16 01:08:55;;;;;;;7.70;5.60;;;9.00;99.90;;;;;;5043063;28;20467;-68
2023/05/16 01:11:26;;;;;;;5.87;5.67;;;9.10;99.90;;;;;;5042330;28;20460;-68
2023/05/16 01:14:03;;;;;;;5.23;5.00;;;9.10;99.90;;;;;;5043306;28;20852;-68
2023/05/16 01:16:38;;;;;;;9.30;5.27;;;9.10;99.90;;;;;;5034753;28;20516;-68
2023/05/16 01:19:17;;;;;;;5.47;5.27;;;9.00;99.90;;;;;;5039868;28;20492;-69
2023/05/16 01:21:50;;;;;;;5.83;5.33;;;9.00;99.90;;;;;;5035548;28;20473;-68
2023/05/16 01:24:24;;;;;;;6.57;6.03;;;9.00;99.90;;;;;;5043792;28;20492;-68
2023/05/16 01:26:54;;;;;;;6.00;5.70;;;9.00;99.90;;;;;;5040766;28;20447;-69
2023/05/16 01:29:21;;;;;;;7.23;6.77;;;9.00;99.90;;;;;;5036557;28;20465;-69
2023/05/16 01:31:48;;;;;;;6.53;6.20;;;9.00;99.90;;;;;;5044146;28;20458;-68
2023/05/16 01:34:15;;;;;;;12.50;7.67;;;9.00;99.90;;;;;;5043944;28;20467;-68
2023/05/16 01:36:48;;;;;;;7.00;6.40;;;9.00;99.90;;;;;;5037405;28;20471;-69
2023/05/16 01:39:21;;;;;;;6.90;6.37;;;9.00;99.90;;;;;;5040305;28;20474;-68
2023/05/16 01:41:59;;;;;;;10.73;6.40;;;9.00;99.90;;;;;;5042906;28;20471;-69
2023/05/16 01:44:31;;;;;;;7.40;6.23;;;8.90;99.90;;;;;;5047096;28;20487;-69
2023/05/16 01:47:01;;;;;;;13.50;8.80;;;8.90;99.90;;;;;;5041076;28;20460;-68
2023/05/16 01:49:36;;;;;;;5.50;5.30;;;8.90;99.90;;;;;;5042830;28;20456;-68
2023/05/16 01:52:10;;;;;;;6.63;6.20;;;8.90;99.90;;;;;;5037175;28;20828;-68
2023/05/16 01:54:39;;;;;;;6.50;6.17;;;8.80;99.90;;;;;;5040674;28;20480;-69
2023/05/16 01:57:10;;;;;;;6.13;5.73;;;8.90;99.90;;;;;;5039500;28;20662;-68
2023/05/16 01:59:38;;;;;;;7.90;7.10;;;8.90;99.90;;;;;;5047565;28;20460;-68
2023/05/16 02:02:05;;;;;;;6.70;6.03;;;8.90;99.90;;;;;;5047971;28;20459;-68
2023/05/16 02:04:32;;;;;;;12.13;6.30;;;8.80;99.90;;;;;;5036477;28;20500;-67
2023/05/16 02:07:00;;;;;;;6.97;5.50;;;8.80;99.90;;;;;;5041778;28;20460;-67
2023/05/16 02:09:28;;;;;;;7.50;5.77;;;8.80;99.90;;;;;;5035723;28;20546;-68
2023/05/16 02:11:55;;;;;;;5.93;5.60;;;8.80;99.90;;;;;;5036116;28;20456;-67
2023/05/16 02:14:24;;;;;;;6.40;6.10;;;8.80;99.90;;;;;;5045065;28;20989;-68
2023/05/16 02:16:51;;;;;;;7.83;6.70;;;8.80;99.90;;;;;;5033224;28;20531;-68
2023/05/16 02:19:18;;;;;;;6.00;5.50;;;8.70;99.90;;;;;;5045727;28;20660;-68
2023/05/16 02:21:45;;;;;;;6.10;5.80;;;8.80;99.90;;;;;;5035800;28;21009;-69
2023/05/16 02:24:12;;;;;;;5.70;5.43;;;8.70;99.90;;;;;;5041709;28;20532;-68
2023/05/16 02:26:40;;;;;;;6.80;6.50;;;8.70;99.90;;;;;;5041205;28;20944;-68
2023/05/16 02:29:07;;;;;;;6.70;6.50;;;8.70;99.90;;;;;;5033823;28;20472;-68
2023/05/16 02:31:36;;;;;;;6.90;6.30;;;8.60;99.90;;;;;;5038701;28;20980;-68
2023/05/16 02:34:03;;;;;;;15.97;7.57;;;8.60;99.90;;;;;;5038122;28;20465;-68
2023/05/16 02:36:31;;;;;;;8.27;7.57;;;8.50;99.90;;;;;;5040721;28;20468;-68
2023/05/16 02:38:57;;;;;;;8.27;7.87;;;8.50;99.90;;;;;;5037195;28;20465;-68
2023/05/16 02:41:25;;;;;;;8.40;7.77;;;8.50;99.90;;;;;;5042387;28;20979;-67
2023/05/16 02:43:52;;;;;;;7.93;7.53;;;8.40;99.90;;;;;;5039326;28;20487;-67
2023/05/16 02:46:27;;;;;;;8.10;7.70;;;8.30;99.90;;;;;;5036142;28;21021;-67
2023/05/16 02:48:56;;;;;;;21.20;10.80;;;8.30;99.90;;;;;;5041211;28;20499;-68
2023/05/16 02:51:24;;;;;;;8.97;8.53;;;8.30;99.90;;;;;;5035921;28;20527;-68
2023/05/16 02:53:55;;;;;;;7.93;7.63;;;8.30;99.90;;;;;;5044022;28;20457;-68
2023/05/16 02:56:23;;;;;;;9.33;8.73;;;8.20;99.90;;;;;;5043831;28;20606;-67
2023/05/16 02:58:50;;;;;;;7.80;7.50;;;8.20;99.90;;;;;;5040667;28;20874;-67
2023/05/16 03:01:19;;;;;;;9.20;8.13;;;8.20;99.90;;;;;;5042561;28;20464;-68
2023/05/16 03:03:46;;;;;;;8.27;7.83;;;8.10;99.90;;;;;;5038057;28;20545;-67
2023/05/16 03:06:15;;;;;;;9.13;8.53;;;8.00;99.90;;;;;;5035216;28;20483;-68
2023/05/16 03:08:42;;;;;;;11.43;8.50;;;8.00;99.90;;;;;;5037333;28;20475;-68
2023/05/16 03:11:10;;;;;;;6.37;6.17;;;8.00;99.90;;;;;;5034307;28;20510;-67
2023/05/16 03:13:37;;;;;;;7.37;7.07;;;7.90;99.90;;;;;;5042312;28;20523;-67
2023/05/16 03:16:05;;;;;;;8.00;7.40;;;7.90;99.90;;;;;;5033290;28;20816;-68
2023/05/16 03:18:32;;;;;;;10.07;9.43;;;7.80;99.90;;;;;;5028136;28;20487;-69
2023/05/16 03:20:59;;;;;;;7.80;7.50;;;7.70;99.90;;;;;;5039133;28;20534;-68
2023/05/16 03:23:27;;;;;;;7.73;7.43;;;7.70;99.90;;;;;;5041560;28;20985;-68
2023/05/16 03:25:54;;;;;;;11.33;9.07;;;7.60;99.90;;;;;;5040421;28;20468;-68
2023/05/16 03:28:22;;;;;;;9.63;8.93;;;7.50;99.90;;;;;;5041282;28;20551;-68
2023/05/16 03:30:49;;;;;;;9.37;8.43;;;7.50;99.90;;;;;;5037513;28;20463;-68
2023/05/16 03:33:16;;;;;;;9.07;8.67;;;7.40;99.90;;;;;;5043239;28;20945;-68
2023/05/16 03:35:43;;;;;;;9.40;9.00;;;7.40;99.90;;;;;;5038568;28;20473;-67
2023/05/16 03:38:10;;;;;;;9.27;8.60;;;7.30;99.90;;;;;;5035756;28;20982;-68
2023/05/16 03:40:41;;;;;;;7.67;7.37;;;7.30;99.90;;;;;;5036564;28;20989;-68
2023/05/16 03:43:08;;;;;;;8.27;7.97;;;7.30;99.90;;;;;;5044419;28;20510;-68
2023/05/16 03:45:36;;;;;;;9.50;8.80;;;7.20;99.90;;;;;;5032514;28;20491;-67
2023/05/16 03:48:03;;;;;;;11.00;10.13;;;7.20;99.90;;;;;;5043008;28;20461;-69
2023/05/16 03:50:30;;;;;;;9.20;8.80;;;7.20;99.90;;;;;;5033489;28;20545;-68
2023/05/16 03:52:56;;;;;;;9.67;8.90;;;7.10;99.90;;;;;;5037944;28;20495;-68
2023/05/16 03:55:23;;;;;;;9.83;9.23;;;7.10;99.90;;;;;;5037117;28;20837;-67
2023/05/16 03:57:52;;;;;;;8.70;8.30;;;7.10;99.90;;;;;;5043958;28;20559;-68
2023/05/16 04:00:20;;;;;;;9.93;9.43;;;7.10;99.90;;;;;;5044289;28;20471;-68
2023/05/16 04:02:49;;;;;;;10.30;9.30;;;7.10;99.90;;;;;;5048396;28;20540;-68
2023/05/16 04:05:16;;;;;;;10.93;9.80;;;7.10;99.90;;;;;;5039257;28;21021;-69
2023/05/16 04:07:43;;;;;;;11.60;10.73;;;7.00;99.90;;;;;;5044607;28;20494;-68
2023/05/16 04:10:10;;;;;;;12.10;10.80;;;7.00;99.90;;;;;;5045754;28;20544;-67
2023/05/16 04:12:37;;;;;;;9.30;9.00;;;7.00;99.90;;;;;;5041773;28;20470;-69
2023/05/16 04:15:06;;;;;;;12.23;11.43;;;6.90;99.90;;;;;;5048576;28;20454;-68
2023/05/16 04:17:34;;;;;;;10.20;9.80;;;6.90;99.90;;;;;;5032397;28;20514;-67
2023/05/16 04:20:01;;;;;;;12.10;11.03;;;6.90;99.90;;;;;;5037829;28;20971;-68
2023/05/16 04:22:28;;;;;;;11.33;10.73;;;6.90;99.90;;;;;;5043306;28;20801;-68
2023/05/16 04:24:55;;;;;;;10.60;10.20;;;6.90;99.90;;;;;;5044594;28;20486;-69
2023/05/16 04:27:23;;;;;;;10.00;9.50;;;6.90;99.90;;;;;;5043297;28;20591;-67
2023/05/16 04:29:50;;;;;;;10.53;9.90;;;6.90;99.90;;;;;;5044333;28;20539;-66
2023/05/16 04:32:20;;;;;;;11.10;10.57;;;6.80;99.90;;;;;;5040545;28;20457;-66
2023/05/16 04:35:02;;;;;;;9.00;8.70;;;6.80;99.90;;;;;;5043931;28;20942;-67
2023/05/16 04:37:29;;;;;;;10.87;10.47;;;6.80;99.90;;;;;;5043826;28;20481;-69
2023/05/16 04:39:56;;;;;;;11.13;10.63;;;6.80;99.90;;;;;;5037910;28;20464;-68
2023/05/16 04:42:24;;;;;;;11.47;11.03;;;6.90;99.90;;;;;;5050534;28;20955;-68
2023/05/16 04:44:51;;;;;;;11.63;11.13;;;6.90;99.90;;;;;;5041891;28;20497;-69
2023/05/16 04:47:19;;;;;;;10.97;10.47;;;6.90;99.90;;;;;;5041053;28;20521;-68
2023/05/16 04:49:46;;;;;;;11.23;10.30;;;6.90;99.90;;;;;;5040550;28;20468;-69
2023/05/16 04:52:13;;;;;;;24.20;9.80;;;6.90;99.90;;;;;;5038025;28;20465;-69
2023/05/16 04:54:39;;;;;;;10.23;9.83;;;6.90;99.90;;;;;;5044129;28;20529;-68
2023/05/16 04:57:06;;;;;;;10.20;9.80;;;6.90;99.90;;;;;;5043759;28;20471;-66
2023/05/16 04:59:35;;;;;;;18.87;10.10;;;6.90;99.90;;;;;;5037750;28;20465;-66
2023/05/16 05:02:03;;;;;;;9.90;9.50;;;6.90;99.90;;;;;;5040016;28;20473;-67
2023/05/16 05:04:31;;;;;;;17.37;10.30;;;7.00;99.90;;;;;;5037937;28;20497;-67
2023/05/16 05:06:59;;;;;;;9.43;9.13;;;7.00;99.90;;;;;;5034662;28;20923;-69
2023/05/16 05:09:25;;;;;;;12.10;11.00;;;7.10;99.90;;;;;;5038962;28;20959;-69
2023/05/16 05:11:53;;;;;;;10.20;9.73;;;7.20;99.90;;;;;;5042056;28;20457;-68
2023/05/16 05:14:20;;;;;;;10.20;9.53;;;7.20;99.90;;;;;;5043792;28;20529;-66
2023/05/16 05:16:47;;;;;;;10.90;10.10;;;7.30;99.90;;;;;;5042823;28;20566;-66
2023/05/16 05:19:14;;;;;;;8.80;8.50;;;7.30;99.90;;;;;;5036927;28;20556;-66
2023/05/16 05:21:43;;;;;;;9.20;8.90;;;7.30;99.90;;;;;;5033658;28;20585;-66
2023/05/16 05:24:10;;;;;;;9.80;9.40;;;7.40;99.90;;;;;;5042956;28;20470;-65
2023/05/16 05:26:37;;;;;;;16.63;9.97;;;7.40;99.90;;;;;;5042624;28;20586;-67
2023/05/16 05:29:04;;;;;;;10.17;9.67;;;7.40;99.90;;;;;;5043646;28;20463;-67
2023/05/16 05:31:32;;;;;;;10.00;9.50;;;7.50;99.90;;;;;;5039115;28;20466;-66
2023/05/16 05:33:59;;;;;;;9.13;8.83;;;7.50;99.90;;;;;;5043005;28;20981;-66
2023/05/16 05:36:26;;;;;;;8.90;8.40;;;7.60;99.90;;;;;;5036880;28;20557;-66
2023/05/16 05:38:54;;;;;;;9.60;8.90;;;7.70;99.90;;;;;;5038737;28;20959;-66
2023/05/16 05:41:21;;;;;;;9.53;9.10;;;7.70;99.90;;;;;;5044084;28;20467;-66
2023/05/16 05:43:48;;;;;;;9.70;9.30;;;7.70;99.90;;;;;;5038531;28;20452;-66
2023/05/16 05:46:16;;;;;;;10.30;9.53;;;7.80;99.90;;;;;;5039207;28;20502;-66
2023/05/16 05:48:43;;;;;;;9.13;8.73;;;7.90;99.90;;;;;;5035914;28;20468;-67
2023/05/16 05:51:13;;;;;;;9.47;9.07;;;7.90;99.90;;;;;;5039206;28;20830;-67
2023/05/16 05:53:40;;;;;;;9.60;9.20;;;7.90;99.90;;;;;;5041533;28;20464;-68
2023/05/16 05:56:08;;;;;;;10.10;9.50;;;8.00;99.90;;;;;;5032582;28;20564;-66
2023/05/16 05:58:35;;;;;;;18.73;10.03;;;8.00;99.90;;;;;;5040800;28;20468;-67
2023/05/16 06:01:03;;;;;;;8.73;8.30;;;8.10;99.90;;;;;;5040113;28;20467;-67
2023/05/16 06:03:30;;;;;;;7.97;7.67;;;8.20;99.90;;;;;;5045027;28;20676;-68
2023/05/16 06:05:57;;;;;;;8.37;8.07;;;8.20;99.90;;;;;;5045790;28;20513;-67
2023/05/16 06:08:25;;;;;;;7.80;7.50;;;8.20;99.90;;;;;;5040812;28;20525;-68
2023/05/16 06:10:52;;;;;;;9.07;8.37;;;8.20;99.90;;;;;;5044653;28;20460;-66
2023/05/16 06:13:20;;;;;;;8.00;7.60;;;8.30;99.90;;;;;;5036966;28;20627;-66
2023/05/16 06:15:50;;;;;;;15.33;8.87;;;8.40;99.90;;;;;;5046726;28;20463;-68
2023/05/16 06:18:17;;;;;;;7.17;6.87;;;8.50;99.90;;;;;;5036961;28;20551;-67
2023/05/16 06:20:48;;;;;;;7.43;7.03;;;8.60;99.90;;;;;;5040201;28;20495;-67
2023/05/16 06:23:14;;;;;;;8.30;7.97;;;8.50;99.90;;;;;;5035736;28;20503;-68
2023/05/16 06:25:41;;;;;;;6.87;6.63;;;8.60;99.90;;;;;;5032773;28;20530;-66
2023/05/16 06:28:09;;;;;;;10.10;7.50;;;8.60;99.90;;;;;;5036051;28;20459;-68
2023/05/16 06:30:39;;;;;;;6.50;6.30;;;8.60;99.90;;;;;;5039533;28;20468;-67
2023/05/16 06:33:06;;;;;;;7.47;7.07;;;8.70;99.90;;;;;;5034615;28;20488;-67
2023/05/16 06:35:33;;;;;;;8.60;7.90;;;8.80;99.90;;;;;;5023397;28;20461;-66
2023/05/16 06:38:00;;;;;;;8.23;7.47;;;8.90;99.90;;;;;;5025521;28;20460;-67
2023/05/16 06:40:27;;;;;;;13.43;8.73;;;8.90;99.90;;;;;;5041210;28;20702;-67
2023/05/16 06:42:54;;;;;;;7.80;7.50;;;9.00;99.90;;;;;;5036987;28;20788;-67
2023/05/16 06:45:21;;;;;;;7.37;7.07;;;9.00;99.90;;;;;;5037348;28;21058;-67
2023/05/16 06:47:49;;;;;;;8.73;8.33;;;9.20;99.90;;;;;;5035839;28;20542;-67
2023/05/16 06:50:16;;;;;;;10.33;9.47;;;9.40;99.90;;;;;;5040353;28;20854;-67
2023/05/16 06:52:44;;;;;;;10.07;9.67;;;9.60;99.90;;;;;;5035905;28;20467;-67
2023/05/16 06:55:11;;;;;;;18.30;11.03;;;9.70;99.90;;;;;;5038456;28;20550;-67
2023/05/16 06:57:38;;;;;;;10.50;10.10;;;9.90;99.90;;;;;;5040369;28;20872;-66
2023/05/16 07:00:07;;;;;;;12.73;11.93;;;10.20;99.90;;;;;;5038580;28;20471;-68
2023/05/16 07:02:33;;;;;;;12.50;11.93;;;10.50;99.90;;;;;;5030459;28;20533;-67
2023/05/16 07:05:02;;;;;;;13.97;12.87;;;10.30;99.90;;;;;;5037506;28;20492;-67
2023/05/16 07:07:32;;;;;;;14.43;13.43;;;10.50;99.90;;;;;;5035859;28;20460;-66
2023/05/16 07:09:59;;;;;;;13.93;13.23;;;10.60;99.90;;;;;;5033738;28;20464;-67
2023/05/16 07:12:26;;;;;;;15.97;14.60;;;10.70;99.90;;;;;;5028410;28;20859;-68
2023/05/16 07:14:54;;;;;;;15.07;14.07;;;10.80;99.90;;;;;;5028653;28;20468;-68
2023/05/16 07:17:24;;;;;;;15.17;14.37;;;10.50;99.90;;;;;;5039941;28;20996;-67
2023/05/16 07:19:55;;;;;;;16.27;15.10;;;10.20;99.90;;;;;;5039201;28;20533;-67
2023/05/16 07:22:26;;;;;;;14.90;14.13;;;10.10;99.90;;;;;;5033321;28;20465;-67
2023/05/16 07:24:56;;;;;;;14.53;13.83;;;10.00;99.90;;;;;;5032474;28;20875;-67
2023/05/16 07:27:26;;;;;;;17.40;15.03;;;10.00;99.90;;;;;;5039535;28;20468;-68
2023/05/16 07:29:53;;;;;;;15.00;14.23;;;9.80;99.90;;;;;;5041697;28;20464;-67
2023/05/16 07:32:22;;;;;;;16.17;15.20;;;9.80;99.90;;;;;;5037929;28;20864;-68
2023/05/16 07:34:50;;;;;;;21.67;13.97;;;10.10;99.90;;;;;;5032655;28;20456;-67
2023/05/16 07:37:19;;;;;;;15.10;14.40;;;10.40;99.90;;;;;;5040874;28;20464;-67
2023/05/16 07:39:49;;;;;;;16.97;15.57;;;10.80;99.90;;;;;;5038194;28;20564;-68
2023/05/16 07:42:16;;;;;;;15.67;14.87;;;11.10;99.90;;;;;;5047405;28;20509;-67
2023/05/16 07:44:44;;;;;;;16.00;15.00;;;11.50;99.90;;;;;;5037945;28;20453;-67
2023/05/16 07:47:11;;;;;;;17.00;15.90;;;11.80;99.90;;;;;;5043564;28;20491;-68
2023/05/16 07:49:38;;;;;;;17.00;16.10;;;11.80;99.90;;;;;;5037651;28;20949;-67
2023/05/16 07:52:08;;;;;;;18.33;17.20;;;11.80;99.90;;;;;;5047530;28;20905;-67
2023/05/16 07:54:36;;;;;;;16.60;15.60;;;11.80;99.90;;;;;;5045822;28;20467;-68
2023/05/16 07:57:04;;;;;;;16.30;15.50;;;11.90;99.90;;;;;;5041829;28;20468;-68
2023/05/16 07:59:31;;;;;;;16.83;15.70;;;12.00;99.90;;;;;;5045116;28;20462;-68
2023/05/16 08:02:00;;;;;;;16.93;16.03;;;12.00;99.90;;;;;;5039159;28;20534;-67
2023/05/16 08:04:29;;;;;;;17.30;16.20;;;11.90;99.90;;;;;;5045605;28;20480;-68
2023/05/16 08:06:57;;;;;;;16.53;15.63;;;12.00;99.90;;;;;;5042680;28;20826;-67
2023/05/16 08:09:24;;;;;;;19.53;17.97;;;11.80;99.90;;;;;;5041449;28;20733;-68
2023/05/16 08:11:51;;;;;;;18.80;16.97;;;11.50;99.90;;;;;;5038082;28;20473;-67
2023/05/16 08:14:20;;;;;;;16.70;15.90;;;11.40;99.90;;;;;;5040338;28;20950;-68
2023/05/16 08:16:47;;;;;;;16.93;16.03;;;11.40;99.90;;;;;;5042380;28;20895;-67
2023/05/16 08:19:14;;;;;;;15.63;14.80;;;11.40;99.90;;;;;;5036533;28;20541;-67
2023/05/16 08:21:41;;;;;;;16.40;15.40;;;11.40;99.90;;;;;;5041157;28;20479;-68
2023/05/16 08:24:10;;;;;;;16.20;15.20;;;11.30;99.90;;;;;;5038369;28;20499;-67
2023/05/16 08:26:37;;;;;;;17.30;16.20;;;11.30;99.90;;;;;;5035662;28;20483;-68
2023/05/16 08:29:04;;;;;;;16.83;15.90;;;11.50;99.90;;;;;;5037721;28;20987;-68
2023/05/16 08:31:32;;;;;;;16.60;15.70;;;12.00;99.90;;;;;;5036933;28;20459;-67
2023/05/16 08:34:00;;;;;;;17.37;16.47;;;12.70;99.90;;;;;;5038427;28;20827;-67
2023/05/16 08:36:27;;;;;;;16.93;15.87;;;13.40;99.90;;;;;;5042703;28;20466;-67
2023/05/16 08:38:54;;;;;;;17.30;15.83;;;14.10;99.90;;;;;;5038586;28;20532;-68
2023/05/16 08:41:21;;;;;;;16.33;15.50;;;14.90;99.90;;;;;;5040552;28;20529;-67
2023/05/16 08:43:48;;;;;;;18.23;16.80;;;14.80;99.90;;;;;;5041441;28;21051;-67
2023/05/16 08:46:18;;;;;;;17.97;17.07;;;15.00;99.90;;;;;;5039591;28;20503;-68
2023/05/16 08:48:51;;;;;;;16.07;15.27;;;15.30;99.90;;;;;;5045910;28;20865;-68
2023/05/16 08:51:19;;;;;;;18.13;16.90;;;15.70;99.90;;;;;;5036549;28;20463;-67
2023/05/16 08:53:53;;;;;;;17.47;15.80;;;16.50;99.90;;;;;;5044889;28;20452;-68
2023/05/16 08:56:22;;;;;;;16.53;15.73;;;16.00;99.90;;;;;;5039130;28;20462;-68
2023/05/16 08:58:49;;;;;;;16.40;15.60;;;14.50;99.90;;;;;;5047660;28;20475;-67
2023/05/16 09:01:16;;;;;;;16.63;15.60;;;13.60;99.90;;;;;;5042296;28;20448;-68
2023/05/16 09:03:45;;;;;;;15.97;15.17;;;13.10;99.90;;;;;;5038932;28;20468;-68
2023/05/16 09:06:12;;;;;;;16.60;15.70;;;13.00;99.90;;;;;;5034318;28;20488;-68
2023/05/16 09:08:39;;;;;;;16.80;15.60;;;13.80;99.90;;;;;;5041261;28;20456;-68
2023/05/16 09:11:07;;;;;;;19.17;17.53;;;13.80;99.90;;;;;;5045550;28;20521;-69
2023/05/16 09:13:34;;;;;;;17.10;16.20;;;13.50;99.90;;;;;;5041369;28;20475;-69
2023/05/16 09:16:16;;;;;;;16.50;15.70;;;13.20;99.90;;;;;;5044386;28;20467;-69
2023/05/16 09:18:47;;;;;;;17.10;16.20;;;13.20;99.90;;;;;;5038188;28;20470;-69
2023/05/16 09:21:16;;;;;;;16.60;15.80;;;13.20;99.90;;;;;;5033551;28;20890;-68
2023/05/16 09:23:48;;;;;;;17.30;16.00;;;12.90;99.90;;;;;;5031619;28;20817;-69
2023/05/16 09:26:15;;;;;;;16.27;15.47;;;13.10;99.90;;;;;;5038118;28;20484;-68
2023/05/16 09:28:46;;;;;;;16.57;15.77;;;13.80;99.90;;;;;;5041168;28;20998;-69
2023/05/16 09:31:21;;;;;;;17.50;16.50;;;14.80;99.90;;;;;;5043857;28;20587;-69
2023/05/16 09:33:50;;;;;;;16.67;15.83;;;15.40;99.90;;;;;;5040088;28;20459;-68
2023/05/16 09:36:19;;;;;;;18.50;17.40;;;15.60;99.90;;;;;;5040719;28;20494;-68
2023/05/16 09:38:49;;;;;;;17.53;16.63;;;16.30;99.90;;;;;;5038074;28;20954;-69
2023/05/16 09:41:17;;;;;;;17.53;16.63;;;17.00;99.90;;;;;;5045340;28;20464;-69
2023/05/16 09:43:46;;;;;;;17.57;16.67;;;16.70;99.90;;;;;;5034278;28;20556;-68
2023/05/16 09:46:15;;;;;;;18.50;17.30;;;16.10;99.90;;;;;;5043088;28;20499;-68
2023/05/16 09:48:45;;;;;;;18.20;17.00;;;14.90;99.90;;;;;;5039016;28;20530;-68
2023/05/16 09:51:12;;;;;;;18.17;16.83;;;14.40;99.90;;;;;;5040068;28;20910;-68
2023/05/16 09:53:41;;;;;;;17.93;16.73;;;13.70;99.90;;;;;;5039557;28;20526;-67
2023/05/16 09:56:13;;;;;;;17.03;16.07;;;13.30;99.90;;;;;;5042144;28;20479;-68
2023/05/16 09:58:43;;;;;;;16.77;15.87;;;13.40;99.90;;;;;;5044044;28;20459;-68
2023/05/16 10:01:10;;;;;;;16.43;15.63;;;13.30;99.90;;;;;;5037736;28;20829;-68
2023/05/16 10:03:39;;;;;;;17.20;16.30;;;14.00;99.90;;;;;;5046630;28;20901;-68
2023/05/16 10:06:07;;;;;;;18.13;17.20;;;15.10;99.90;;;;;;5034385;28;20476;-67
2023/05/16 10:08:35;;;;;;;17.70;16.80;;;15.80;99.90;;;;;;5040670;28;20467;-68
2023/05/16 10:11:05;;;;;;;18.90;18.00;;;15.70;99.90;;;;;;5038550;28;20507;-68
2023/05/16 10:13:34;;;;;;;19.10;17.90;;;15.50;99.90;;;;;;5038633;28;20554;-68
2023/05/16 10:16:06;;;;;;;18.40;17.40;;;15.40;99.90;;;;;;5034021;28;20464;-68
2023/05/16 10:18:38;;;;;;;18.80;17.80;;;14.90;99.90;;;;;;5039290;28;20465;-68
2023/05/16 10:21:10;;;;;;;17.10;16.30;;;14.30;99.90;;;;;;5039214;28;20846;-68
2023/05/16 10:23:44;;;;;;;17.60;16.70;;;14.60;99.90;;;;;;5034844;28;20919;-68
2023/05/16 10:26:13;;;;;;;16.33;15.53;;;15.50;99.90;;;;;;5042147;28;20529;-67
2023/05/16 10:28:43;;;;;;;17.50;16.70;;;16.40;99.90;;;;;;5037364;28;20464;-67
2023/05/16 10:31:11;;;;;;;17.13;16.33;;;16.90;99.90;;;;;;5035540;28;20490;-68
2023/05/16 10:33:40;;;;;;;16.97;16.17;;;16.60;99.90;;;;;;5032451;28;20487;-67
2023/05/16 10:36:10;;;;;;;17.07;16.17;;;17.40;99.90;;;;;;5031964;28;20464;-67
2023/05/16 10:38:42;;;;;;;18.07;16.67;;;17.70;99.90;;;;;;5036521;28;20468;-67
2023/05/16 10:41:13;;;;;;;17.93;17.13;;;18.30;99.90;;;;;;5030149;28;20839;-67
2023/05/16 10:43:40;;;;;;;18.07;16.97;;;18.40;99.90;;;;;;5037825;28;20969;-68
2023/05/16 10:46:09;;;;;;;18.80;17.93;;;18.20;99.90;;;;;;5033432;28;20935;-68
2023/05/16 10:48:37;;;;;;;17.27;16.47;;;18.00;99.90;;;;;;5037265;28;20963;-68
2023/05/16 10:51:34;;;;;;;18.80;17.90;;;17.40;99.90;;;;;;5032906;28;20974;-67
2023/05/16 10:54:14;;;;;;;18.23;17.43;;;16.70;99.90;;;;;;5032682;28;20471;-67
2023/05/16 10:56:44;;;;;;;18.50;17.50;;;15.60;99.90;;;;;;5040130;28;20828;-67
2023/05/16 10:59:25;;;;;;;18.10;17.30;;;15.70;99.90;;;;;;5032251;28;20462;-68
2023/05/16 11:01:53;;;;;;;19.17;18.00;;;16.70;99.90;;;;;;5032749;28;20495;-68
2023/05/16 11:04:22;;;;;;;18.90;17.60;;;17.70;99.90;;;;;;5032245;28;20831;-67
2023/05/16 11:06:57;;;;;;;18.40;17.60;;;17.90;99.90;;;;;;5038554;28;20487;-66
2023/05/16 11:09:27;;;;;;;18.40;17.60;;;17.60;99.90;;;;;;5033843;28;20724;-67
2023/05/16 11:12:01;;;;;;;19.33;18.53;;;18.70;99.90;;;;;;5038117;28;20526;-67
2023/05/16 11:14:41;;;;;;;18.43;17.63;;;19.40;97.10;;;;;;5030596;28;20452;-66
2023/05/16 11:17:11;;;;;;;18.67;17.77;;;19.40;97.90;;;;;;5042813;28;20475;-67
2023/05/16 11:19:44;;;;;;;18.60;17.80;;;18.90;97.00;;;;;;5035647;28;20475;-68
2023/05/16 11:22:21;;;;;;;19.43;18.53;;;17.90;98.80;;;;;;5040066;28;20464;-67
2023/05/16 11:25:00;;;;;;;18.57;17.77;;;17.70;99.50;;;;;;5031582;28;20463;-68
2023/05/16 11:27:30;;;;;;;17.47;16.67;;;17.20;99.90;;;;;;5039938;28;20779;-68
2023/05/16 11:30:00;;;;;;;17.97;16.90;;;16.70;99.90;;;;;;5034019;28;20506;-68
2023/05/16 11:32:27;;;;;;;17.87;17.07;;;16.20;99.90;;;;;;5041514;28;20463;-67
2023/05/16 11:34:54;;;;;;;18.83;17.93;;;16.00;99.90;;;;;;5035568;28;20711;-68
2023/05/16 11:37:23;;;;;;;19.30;18.10;;;15.70;99.90;;;;;;5039893;28;20479;-67
2023/05/16 11:39:51;;;;;;;17.60;16.80;;;15.60;99.90;;;;;;5031198;28;21036;-67
2023/05/16 11:42:18;;;;;;;18.43;17.53;;;15.40;99.90;;;;;;5036477;28;20460;-68
2023/05/16 11:44:46;;;;;;;18.40;17.30;;;15.40;99.90;;;;;;5036163;28;20460;-68
2023/05/16 11:47:13;;;;;;;17.40;16.60;;;16.20;99.90;;;;;;5033897;28;20587;-68
2023/05/16 11:49:42;;;;;;;17.70;16.90;;;16.00;99.10;;;;;;5032481;28;20456;-67
2023/05/16 11:52:09;;;;;;;17.23;16.43;;;16.10;98.30;;;;;;5036693;28;20544;-68
2023/05/16 11:54:37;;;;;;;16.73;16.03;;;16.80;97.80;;;;;;5038694;28;20530;-68
2023/05/16 11:57:08;;;;;;;16.30;15.60;;;17.30;99.60;;;;;;5039872;28;20460;-68
2023/05/16 11:59:40;;;;;;;17.10;16.30;;;17.90;96.60;;;;;;5032558;28;20469;-68
2023/05/16 12:02:09;;;;;;;17.20;16.40;;;18.20;95.40;;;;;;5039109;28;20865;-68
2023/05/16 12:04:37;;;;;;;18.20;17.30;;;18.50;94.40;;;;;;5033775;28;20550;-68
2023/05/16 12:07:04;;;;;;;16.70;16.00;;;18.70;91.80;;;;;;5036606;28;20499;-68
2023/05/16 12:09:33;;;;;;;16.80;16.10;;;19.00;93.40;;;;;;5030359;28;20462;-67
2023/05/16 12:12:07;;;;;;;17.37;16.50;;;19.40;91.80;;;;;;5041365;28;20486;-68
2023/05/16 12:14:36;;;;;;;16.60;15.90;;;19.30;91.00;;;;;;5042263;28;20460;-68
2023/05/16 12:17:04;;;;;;;17.47;16.57;;;19.00;91.80;;;;;;5041566;28;20867;-68
2023/05/16 12:19:34;;;;;;;16.70;16.00;;;18.80;87.20;;;;;;5030970;28;20494;-68
2023/05/16 12:22:01;;;;;;;16.57;15.77;;;19.30;91.60;;;;;;5037471;28;20479;-68
2023/05/16 12:24:31;;;;;;;17.77;16.97;;;19.60;90.40;;;;;;5034902;28;20841;-68
2023/05/16 12:26:58;;;;;;;16.70;16.00;;;19.10;91.90;;;;;;5044688;28;21072;-68
2023/05/16 12:29:27;;;;;;;17.40;16.40;;;19.30;90.10;;;;;;5039584;28;20558;-68
2023/05/16 12:31:54;;;;;;;16.70;16.00;;;18.90;82.50;;;;;;5046566;28;20472;-67
2023/05/16 12:34:22;;;;;;;16.73;16.03;;;19.00;82.50;;;;;;5040249;28;20452;-68
2023/05/16 12:36:54;;;;;;;16.30;15.60;;;18.60;85.80;;;;;;5034771;28;20474;-68
2023/05/16 12:39:22;;;;;;;16.30;15.60;;;18.10;86.70;;;;;;5042538;28;20478;-67
2023/05/16 12:41:49;;;;;;;16.70;15.90;;;17.40;86.70;;;;;;5041490;28;20491;-67
2023/05/16 12:44:18;;;;;;;18.27;16.73;;;17.40;92.70;;;;;;5043229;28;20463;-68
2023/05/16 12:46:47;;;;;;;16.30;15.57;;;18.10;93.90;;;;;;5037545;28;21026;-68
2023/05/16 12:49:16;;;;;;;16.27;15.57;;;17.90;94.30;;;;;;5040233;28;20460;-67